Time;durP1;ratioP1;P1;durP2;ratioP2;P2;SDS_P1;SDS_P2;PMS_P1;PMS_P2;Temp;Humidity;BMP_temperature;BMP_pressure;BME280_temperature;BME280_humidity;BME280_pressure;Samples;Min_cycle;Max_cycle;Signal;HPM_P1;HPM_P2
2021/01/04 00:01:09;;;;;;;5.70;4.30;;;;;;;;;;5068102;28;20230;-77
2021/01/04 00:03:49;;;;;;;5.82;4.22;;;;;;;;;;5069961;28;20301;-77
2021/01/04 00:06:27;;;;;;;5.15;4.65;;;;;;;;;;5070262;28;20219;-76
2021/01/04 00:09:09;;;;;;;7.32;5.35;;;;;;;;;;5070534;28;20488;-76
2021/01/04 00:11:39;;;;;;;4.85;3.90;;;;;;;;;;5069863;28;20201;-77
2021/01/04 00:14:15;;;;;;;4.70;4.22;;;;;;;;;;5072102;28;20275;-77
2021/01/04 00:16:46;;;;;;;5.53;4.78;;;;;;;;;;5072134;28;20622;-76
2021/01/04 00:19:16;;;;;;;4.25;3.85;;;;;;;;;;5072209;28;20212;-77
2021/01/04 00:21:48;;;;;;;5.03;4.53;;;;;;;;;;5066735;28;20218;-76
2021/01/04 00:24:18;;;;;;;5.38;4.88;;;;;;;;;;5066944;28;20218;-77
2021/01/04 00:26:49;;;;;;;5.43;4.93;;;;;;;;;;5068781;28;20202;-77
2021/01/04 00:29:18;;;;;;;5.47;4.97;;;;;;;;;;5068527;28;20713;-76
2021/01/04 00:31:46;;;;;;;6.32;5.40;;;;;;;;;;5068886;28;20190;-77
2021/01/04 00:34:15;;;;;;;5.70;5.10;;;;;;;;;;5071143;28;20226;-77
2021/01/04 00:36:58;;;;;;;5.97;4.80;;;;;;;;;;5072124;28;20607;-77
2021/01/04 00:39:31;;;;;;;5.28;4.53;;;;;;;;;;5071787;28;20729;-77
2021/01/04 00:42:01;;;;;;;4.82;4.32;;;;;;;;;;5071129;28;20191;-77
2021/01/04 00:44:33;;;;;;;4.18;3.78;;;;;;;;;;5067390;28;20651;-76
2021/01/04 00:47:03;;;;;;;5.55;4.15;;;;;;;;;;5068678;28;20683;-78
2021/01/04 00:49:32;;;;;;;5.53;3.95;;;;;;;;;;5069709;28;20208;-77
2021/01/04 00:52:01;;;;;;;4.38;3.90;;;;;;;;;;5070246;28;20250;-77
2021/01/04 00:54:39;;;;;;;4.53;4.13;;;;;;;;;;5069425;28;20313;-77
2021/01/04 00:57:15;;;;;;;3.78;3.45;;;;;;;;;;5071704;28;20255;-77
2021/01/04 00:59:49;;;;;;;3.70;3.40;;;;;;;;;;5070820;28;20206;-78
2021/01/04 01:02:27;;;;;;;5.22;3.60;;;;;;;;;;5071715;28;20279;-77
2021/01/04 01:04:58;;;;;;;4.40;3.83;;;;;;;;;;5069360;28;20240;-76
2021/01/04 01:07:39;;;;;;;4.38;3.97;;;;;;;;;;5067159;28;20236;-78
2021/01/04 01:10:09;;;;;;;5.32;4.13;;;;;;;;;;5068950;28;20198;-77
2021/01/04 01:12:41;;;;;;;4.78;4.38;;;;;;;;;;5068176;28;20198;-76
2021/01/04 01:15:16;;;;;;;4.68;3.90;;;;;;;;;;5069749;28;20201;-77
2021/01/04 01:17:52;;;;;;;4.20;3.75;;;;;;;;;;5069120;28;20204;-77
2021/01/04 01:20:20;;;;;;;4.25;3.83;;;;;;;;;;5071675;28;20577;-77
2021/01/04 01:22:49;;;;;;;4.75;3.97;;;;;;;;;;5071682;28;20728;-77
2021/01/04 01:25:17;;;;;;;4.20;3.80;;;;;;;;;;5071598;28;20209;-77
2021/01/04 01:27:58;;;;;;;4.00;3.70;;;;;;;;;;5069962;28;20202;-78
2021/01/04 01:30:40;;;;;;;4.30;3.90;;;;;;;;;;5071086;28;20198;-76
2021/01/04 01:33:13;;;;;;;4.55;4.15;;;;;;;;;;5073140;28;20230;-78
2021/01/04 01:35:49;;;;;;;4.25;3.85;;;;;;;;;;5072925;28;20224;-77
2021/01/04 01:38:26;;;;;;;4.50;4.07;;;;;;;;;;5071773;28;20202;-77
2021/01/04 01:41:01;;;;;;;4.50;4.10;;;;;;;;;;5074504;28;20399;-77
2021/01/04 01:43:32;;;;;;;5.82;3.63;;;;;;;;;;5073642;28;20232;-77
2021/01/04 01:46:03;;;;;;;3.80;3.40;;;;;;;;;;5075049;28;20289;-77
2021/01/04 01:48:43;;;;;;;4.10;3.70;;;;;;;;;;5073817;28;20256;-77
2021/01/04 01:51:14;;;;;;;4.22;3.83;;;;;;;;;;5070473;28;20205;-76
2021/01/04 01:53:50;;;;;;;4.72;4.32;;;;;;;;;;5072183;28;20275;-77
2021/01/04 01:56:18;;;;;;;3.78;3.38;;;;;;;;;;5072671;28;20202;-77
2021/01/04 01:58:52;;;;;;;4.78;4.28;;;;;;;;;;5071365;28;20710;-77
2021/01/04 02:01:23;;;;;;;4.93;4.40;;;;;;;;;;5072557;28;20234;-77
2021/01/04 02:03:54;;;;;;;4.45;4.05;;;;;;;;;;5074409;28;20218;-77
2021/01/04 02:06:26;;;;;;;5.72;4.25;;;;;;;;;;5074522;28;20739;-77
2021/01/04 02:08:58;;;;;;;4.25;3.90;;;;;;;;;;5074814;28;20247;-77
2021/01/04 02:11:32;;;;;;;4.32;3.85;;;;;;;;;;5071664;28;20212;-76
2021/01/04 02:14:04;;;;;;;4.63;4.10;;;;;;;;;;5070306;28;20224;-77
2021/01/04 02:16:34;;;;;;;4.10;3.70;;;;;;;;;;5071846;28;20225;-76
2021/01/04 02:19:08;;;;;;;4.20;3.78;;;;;;;;;;5072158;28;20209;-77
2021/01/04 02:21:49;;;;;;;3.90;3.50;;;;;;;;;;5072401;28;20474;-78
2021/01/04 02:24:20;;;;;;;4.07;3.63;;;;;;;;;;5072795;28;20260;-78
2021/01/04 02:26:50;;;;;;;4.63;4.18;;;;;;;;;;5073114;28;20205;-77
2021/01/04 02:29:19;;;;;;;5.10;3.75;;;;;;;;;;5074408;28;20201;-76
2021/01/04 02:31:48;;;;;;;5.57;4.30;;;;;;;;;;5074122;28;20628;-77
2021/01/04 02:34:15;;;;;;;4.20;3.80;;;;;;;;;;5069569;28;20221;-77
2021/01/04 02:36:43;;;;;;;4.40;3.97;;;;;;;;;;5069047;28;20205;-78
2021/01/04 02:39:12;;;;;;;4.25;3.90;;;;;;;;;;5072105;28;20205;-77
2021/01/04 02:41:42;;;;;;;5.28;3.72;;;;;;;;;;5071794;28;20217;-79
2021/01/04 02:44:09;;;;;;;4.88;4.38;;;;;;;;;;5070492;28;20714;-78
2021/01/04 02:46:38;;;;;;;4.60;4.20;;;;;;;;;;5073082;28;20281;-76
2021/01/04 02:49:07;;;;;;;5.43;4.45;;;;;;;;;;5072632;28;20200;-78
2021/01/04 02:51:36;;;;;;;4.25;3.88;;;;;;;;;;5073658;28;20405;-77
2021/01/04 02:54:05;;;;;;;4.90;4.40;;;;;;;;;;5073410;28;20228;-76
2021/01/04 02:56:40;;;;;;;5.47;3.83;;;;;;;;;;5069311;28;20273;-78
2021/01/04 02:59:14;;;;;;;4.60;4.20;;;;;;;;;;5070294;28;20239;-77
2021/01/04 03:01:44;;;;;;;4.45;4.05;;;;;;;;;;5071047;28;20222;-76
2021/01/04 03:04:12;;;;;;;5.22;4.78;;;;;;;;;;5071222;28;20222;-76
2021/01/04 03:06:43;;;;;;;4.55;4.13;;;;;;;;;;5071282;28;20710;-77
2021/01/04 03:09:10;;;;;;;5.30;4.80;;;;;;;;;;5053508;28;20205;-76
2021/01/04 03:11:38;;;;;;;5.00;4.50;;;;;;;;;;5052474;28;20557;-76
2021/01/04 03:14:09;;;;;;;4.90;4.50;;;;;;;;;;5052110;28;20215;-76
2021/01/04 03:16:40;;;;;;;5.25;4.75;;;;;;;;;;5057184;28;20625;-76
2021/01/04 03:19:09;;;;;;;5.07;3.97;;;;;;;;;;5068888;28;20223;-76
2021/01/04 03:21:36;;;;;;;5.22;4.72;;;;;;;;;;5070242;28;20615;-77
2021/01/04 03:24:06;;;;;;;5.75;4.63;;;;;;;;;;5069647;28;20275;-77
2021/01/04 03:26:38;;;;;;;4.80;4.30;;;;;;;;;;5071004;28;20251;-77
2021/01/04 03:29:05;;;;;;;5.03;4.50;;;;;;;;;;5070710;28;20213;-76
2021/01/04 03:31:32;;;;;;;5.30;4.75;;;;;;;;;;5072952;28;20775;-76
2021/01/04 03:34:00;;;;;;;5.82;5.25;;;;;;;;;;5073213;28;20643;-77
2021/01/04 03:36:27;;;;;;;5.60;4.75;;;;;;;;;;5072890;28;20666;-77
2021/01/04 03:38:53;;;;;;;5.28;4.45;;;;;;;;;;5071112;28;20239;-77
2021/01/04 03:41:21;;;;;;;4.93;4.43;;;;;;;;;;5068890;28;20574;-77
2021/01/04 03:43:48;;;;;;;5.10;4.60;;;;;;;;;;5069816;28;20596;-77
2021/01/04 03:46:14;;;;;;;5.32;4.82;;;;;;;;;;5070470;28;20202;-76
2021/01/04 03:48:41;;;;;;;4.97;4.45;;;;;;;;;;5070104;28;20301;-78
2021/01/04 03:51:10;;;;;;;5.25;4.57;;;;;;;;;;5070490;28;20583;-77
2021/01/04 03:53:37;;;;;;;5.05;4.55;;;;;;;;;;5072466;28;20224;-77
2021/01/04 03:56:07;;;;;;;5.32;4.82;;;;;;;;;;5072462;28;20205;-77
2021/01/04 03:58:34;;;;;;;5.75;4.55;;;;;;;;;;5072687;28;20198;-78
2021/01/04 04:01:01;;;;;;;5.60;4.93;;;;;;;;;;5070380;28;20290;-76
2021/01/04 04:03:27;;;;;;;4.60;4.20;;;;;;;;;;5067747;28;20238;-76
2021/01/04 04:05:54;;;;;;;5.18;4.68;;;;;;;;;;5069788;28;20220;-77
2021/01/04 04:08:22;;;;;;;4.70;4.30;;;;;;;;;;5070298;28;20227;-76
2021/01/04 04:10:48;;;;;;;5.50;5.00;;;;;;;;;;5070083;28;20277;-77
2021/01/04 04:13:15;;;;;;;5.80;5.20;;;;;;;;;;5070204;28;20211;-76
2021/01/04 04:15:42;;;;;;;5.85;5.28;;;;;;;;;;5072279;28;20312;-77
2021/01/04 04:18:09;;;;;;;5.72;5.00;;;;;;;;;;5072289;28;20229;-77
2021/01/04 04:20:36;;;;;;;5.53;5.03;;;;;;;;;;5072098;28;20224;-77
2021/01/04 04:23:03;;;;;;;4.95;4.55;;;;;;;;;;5070343;28;20229;-76
2021/01/04 04:25:31;;;;;;;5.40;4.80;;;;;;;;;;5067388;28;20202;-76
2021/01/04 04:27:58;;;;;;;5.40;4.90;;;;;;;;;;5067955;28;20736;-77
2021/01/04 04:30:26;;;;;;;5.57;5.07;;;;;;;;;;5070034;28;20601;-78
2021/01/04 04:32:55;;;;;;;6.25;4.47;;;;;;;;;;5069812;28;20255;-76
2021/01/04 04:35:22;;;;;;;10.32;7.75;;;;;;;;;;5068690;28;20201;-77
2021/01/04 04:37:49;;;;;;;6.35;4.97;;;;;;;;;;5071872;28;20736;-76
2021/01/04 04:40:17;;;;;;;5.60;4.93;;;;;;;;;;5072242;28;20232;-77
2021/01/04 04:42:45;;;;;;;5.90;4.80;;;;;;;;;;5072036;28;20202;-77
2021/01/04 04:45:15;;;;;;;6.28;5.60;;;;;;;;;;5070063;28;20235;-76
2021/01/04 04:47:56;;;;;;;5.50;5.00;;;;;;;;;;5067625;28;20204;-77
2021/01/04 04:50:33;;;;;;;5.57;5.07;;;;;;;;;;5049346;28;20257;-76
2021/01/04 04:53:09;;;;;;;5.18;4.63;;;;;;;;;;5049701;28;20221;-76
2021/01/04 04:55:41;;;;;;;5.55;5.03;;;;;;;;;;5048765;28;20209;-77
2021/01/04 04:58:20;;;;;;;5.35;4.85;;;;;;;;;;5058998;28;20242;-77
2021/01/04 05:01:01;;;;;;;5.43;4.93;;;;;;;;;;5071657;28;20228;-77
2021/01/04 05:03:34;;;;;;;5.90;5.30;;;;;;;;;;5074865;28;20283;-75
2021/01/04 05:06:08;;;;;;;5.15;4.65;;;;;;;;;;5075679;28;20292;-77
2021/01/04 05:08:47;;;;;;;6.22;5.32;;;;;;;;;;5071353;28;20198;-77
2021/01/04 05:11:15;;;;;;;5.50;4.90;;;;;;;;;;5070711;28;20204;-76
2021/01/04 05:13:45;;;;;;;5.55;5.03;;;;;;;;;;5073776;28;20225;-77
2021/01/04 05:16:15;;;;;;;7.15;5.72;;;;;;;;;;5072020;28;20289;-77
2021/01/04 05:18:53;;;;;;;5.22;4.50;;;;;;;;;;5073561;28;20288;-77
2021/01/04 05:21:35;;;;;;;6.18;5.55;;;;;;;;;;5073662;28;20756;-75
2021/01/04 05:24:10;;;;;;;5.45;4.82;;;;;;;;;;5075143;28;20791;-76
2021/01/04 05:26:46;;;;;;;7.30;5.60;;;;;;;;;;5075458;28;20194;-78
2021/01/04 05:29:22;;;;;;;7.30;5.60;;;;;;;;;;5073395;28;20204;-76
2021/01/04 05:31:52;;;;;;;5.75;4.68;;;;;;;;;;5070842;28;20193;-75
2021/01/04 05:34:23;;;;;;;6.63;5.35;;;;;;;;;;5072697;28;20304;-76
2021/01/04 05:36:56;;;;;;;6.90;6.05;;;;;;;;;;5071882;28;20270;-76
2021/01/04 05:39:30;;;;;;;6.97;5.50;;;;;;;;;;5073240;28;20670;-75
2021/01/04 05:42:05;;;;;;;5.13;4.63;;;;;;;;;;5072085;28;20308;-75
2021/01/04 05:44:39;;;;;;;6.45;5.72;;;;;;;;;;5074796;28;20279;-76
2021/01/04 05:47:21;;;;;;;6.97;5.28;;;;;;;;;;5075005;28;20725;-75
2021/01/04 05:49:50;;;;;;;6.15;5.43;;;;;;;;;;5075183;28;20194;-76
2021/01/04 05:52:18;;;;;;;6.25;5.65;;;;;;;;;;5071183;28;20195;-77
2021/01/04 05:54:45;;;;;;;7.10;4.55;;;;;;;;;;5069364;28;20263;-76
2021/01/04 05:57:13;;;;;;;6.72;5.45;;;;;;;;;;5072607;28;20218;-76
2021/01/04 05:59:51;;;;;;;6.07;5.47;;;;;;;;;;5072750;28;20271;-77
2021/01/04 06:02:26;;;;;;;6.28;5.68;;;;;;;;;;5071615;28;20566;-77
2021/01/04 06:04:53;;;;;;;6.47;5.43;;;;;;;;;;5073530;28;20239;-76
2021/01/04 06:07:20;;;;;;;6.32;4.93;;;;;;;;;;5074583;28;20201;-77
2021/01/04 06:10:01;;;;;;;6.53;5.43;;;;;;;;;;5073599;28;20293;-75
2021/01/04 06:12:34;;;;;;;7.00;5.20;;;;;;;;;;5072774;28;20198;-76
2021/01/04 06:15:02;;;;;;;6.03;5.07;;;;;;;;;;5068570;28;20225;-76
2021/01/04 06:17:31;;;;;;;6.32;4.85;;;;;;;;;;5070908;28;20275;-77
2021/01/04 06:20:01;;;;;;;6.88;5.38;;;;;;;;;;5070929;28;20234;-77
2021/01/04 06:22:29;;;;;;;7.25;5.10;;;;;;;;;;5072091;28;20201;-76
2021/01/04 06:24:59;;;;;;;5.45;4.95;;;;;;;;;;5072212;28;20305;-76
2021/01/04 06:27:32;;;;;;;8.30;5.40;;;;;;;;;;5073581;28;20198;-75
2021/01/04 06:30:01;;;;;;;5.38;4.22;;;;;;;;;;5074301;28;20230;-77
2021/01/04 06:32:30;;;;;;;5.55;4.85;;;;;;;;;;5072955;28;20205;-78
2021/01/04 06:34:58;;;;;;;6.18;5.50;;;;;;;;;;5073135;28;20256;-80
2021/01/04 06:37:26;;;;;;;6.00;4.70;;;;;;;;;;5069860;28;20191;-80
2021/01/04 06:39:59;;;;;;;6.28;4.50;;;;;;;;;;5070865;28;20264;-79
2021/01/04 06:42:26;;;;;;;5.75;4.90;;;;;;;;;;5070612;28;20202;-78
2021/01/04 06:45:08;;;;;;;6.70;5.45;;;;;;;;;;5071678;28;20580;-80
2021/01/04 06:47:43;;;;;;;5.97;4.97;;;;;;;;;;5066970;28;20195;-78
2021/01/04 06:50:13;;;;;;;5.60;5.10;;;;;;;;;;5069815;28;20202;-77
2021/01/04 06:52:54;;;;;;;5.28;4.35;;;;;;;;;;5069993;28;20224;-78
2021/01/04 06:55:29;;;;;;;6.07;4.95;;;;;;;;;;5070455;28;20738;-77
2021/01/04 06:58:05;;;;;;;6.95;5.28;;;;;;;;;;5071472;28;20289;-79
2021/01/04 07:00:47;;;;;;;6.13;4.90;;;;;;;;;;5071315;28;20217;-78
2021/01/04 07:03:28;;;;;;;5.53;5.00;;;;;;;;;;5072446;28;20305;-76
2021/01/04 07:06:02;;;;;;;5.70;4.80;;;;;;;;;;5073466;28;20209;-77
2021/01/04 07:08:36;;;;;;;5.50;4.90;;;;;;;;;;5073747;28;20289;-78
2021/01/04 07:11:10;;;;;;;6.70;5.70;;;;;;;;;;5071089;28;20204;-79
2021/01/04 07:13:45;;;;;;;5.82;4.78;;;;;;;;;;5067794;28;20214;-77
2021/01/04 07:16:26;;;;;;;5.90;5.13;;;;;;;;;;5069175;28;20207;-77
2021/01/04 07:18:58;;;;;;;5.40;4.47;;;;;;;;;;5059204;28;20205;-76
2021/01/04 07:21:47;;;;;;;6.38;5.55;;;;;;;;;;5053133;28;20317;-77
2021/01/04 07:24:28;;;;;;;6.05;5.03;;;;;;;;;;5061967;28;20215;-76
2021/01/04 07:27:04;;;;;;;7.47;5.50;;;;;;;;;;5063443;28;20555;-77
2021/01/04 07:29:37;;;;;;;5.53;4.70;;;;;;;;;;5075215;28;20312;-78
2021/01/04 07:32:06;;;;;;;6.85;5.18;;;;;;;;;;5070238;28;20198;-78
2021/01/04 07:34:34;;;;;;;5.00;4.45;;;;;;;;;;5067615;28;20232;-76
2021/01/04 07:37:08;;;;;;;6.50;5.13;;;;;;;;;;5069233;28;20195;-76
2021/01/04 07:39:40;;;;;;;6.32;5.30;;;;;;;;;;5070544;28;20201;-76
2021/01/04 07:42:16;;;;;;;7.35;5.88;;;;;;;;;;5071218;28;20225;-76
2021/01/04 07:44:56;;;;;;;7.10;5.43;;;;;;;;;;5062701;28;20244;-77
2021/01/04 07:47:37;;;;;;;6.18;5.07;;;;;;;;;;5052179;28;20545;-76
2021/01/04 07:50:19;;;;;;;5.00;4.50;;;;;;;;;;5052337;28;20286;-76
2021/01/04 07:52:55;;;;;;;5.55;4.95;;;;;;;;;;5052472;28;20245;-80
2021/01/04 07:55:33;;;;;;;7.68;5.50;;;;;;;;;;5057743;28;20190;-77
2021/01/04 07:58:14;;;;;;;5.40;4.90;;;;;;;;;;5068057;28;20197;-77
2021/01/04 08:00:48;;;;;;;6.90;5.70;;;;;;;;;;5049064;28;20257;-76
2021/01/04 08:03:29;;;;;;;6.10;5.10;;;;;;;;;;5050128;28;20211;-76
2021/01/04 08:06:06;;;;;;;5.93;5.05;;;;;;;;;;5049389;28;20199;-77
2021/01/04 08:08:43;;;;;;;5.43;4.93;;;;;;;;;;5049752;28;20199;-75
2021/01/04 08:11:26;;;;;;;6.55;5.22;;;;;;;;;;5051196;28;20685;-76
2021/01/04 08:14:07;;;;;;;6.10;5.50;;;;;;;;;;5052610;28;20309;-76
2021/01/04 08:16:36;;;;;;;5.93;5.20;;;;;;;;;;5058108;28;20237;-77
2021/01/04 08:19:08;;;;;;;7.00;5.47;;;;;;;;;;5067446;28;20298;-76
2021/01/04 08:21:43;;;;;;;8.00;6.03;;;;;;;;;;5067314;28;20587;-76
2021/01/04 08:24:15;;;;;;;6.47;5.00;;;;;;;;;;5059926;28;20306;-76
2021/01/04 08:26:47;;;;;;;6.30;5.57;;;;;;;;;;5067196;28;20280;-76
2021/01/04 08:29:19;;;;;;;6.78;6.07;;;;;;;;;;5058004;28;20214;-74
2021/01/04 08:31:50;;;;;;;7.05;5.68;;;;;;;;;;5051065;28;20294;-75
2021/01/04 08:34:19;;;;;;;5.50;5.00;;;;;;;;;;5063350;28;20309;-75
2021/01/04 08:36:49;;;;;;;6.47;5.80;;;;;;;;;;5067955;28;20201;-76
2021/01/04 08:39:28;;;;;;;5.90;5.30;;;;;;;;;;5058886;28;20325;-76
2021/01/04 08:42:03;;;;;;;6.70;5.65;;;;;;;;;;5067954;28;20222;-75
2021/01/04 08:44:31;;;;;;;5.78;5.28;;;;;;;;;;5049229;28;20649;-75
2021/01/04 08:47:08;;;;;;;8.27;5.05;;;;;;;;;;5049693;28;20245;-76
2021/01/04 08:49:40;;;;;;;7.05;5.85;;;;;;;;;;5050323;28;20291;-76
2021/01/04 08:52:14;;;;;;;6.40;5.53;;;;;;;;;;5049261;28;20294;-75
2021/01/04 08:54:42;;;;;;;6.28;5.40;;;;;;;;;;5051910;28;20217;-75
2021/01/04 08:57:13;;;;;;;7.07;5.90;;;;;;;;;;5051446;28;20219;-75
2021/01/04 08:59:52;;;;;;;5.88;5.32;;;;;;;;;;5052011;28;20278;-75
2021/01/04 09:05:04;;;;;;;7.38;5.75;;;;;;;;;;5051590;28;20600;-76
2021/01/04 09:07:31;;;;;;;8.40;6.28;;;;;;;;;;5064131;28;20293;-76
2021/01/04 09:10:00;;;;;;;6.55;5.35;;;;;;;;;;5053722;28;20508;-76
2021/01/04 09:12:33;;;;;;;6.95;6.25;;;;;;;;;;5067972;28;20198;-75
2021/01/04 09:15:00;;;;;;;7.00;6.30;;;;;;;;;;5062266;28;20306;-75
2021/01/04 09:17:36;;;;;;;6.70;5.65;;;;;;;;;;5071711;28;20191;-77
2021/01/04 09:20:07;;;;;;;10.45;7.78;;;;;;;;;;5069344;28;20204;-76
2021/01/04 09:22:34;;;;;;;7.05;6.10;;;;;;;;;;5050766;28;20223;-76
2021/01/04 09:25:01;;;;;;;7.50;5.82;;;;;;;;;;5068459;28;20283;-76
2021/01/04 09:27:31;;;;;;;7.57;6.10;;;;;;;;;;5067379;28;20282;-76
2021/01/04 09:29:59;;;;;;;8.43;6.95;;;;;;;;;;5053800;28;20204;-78
2021/01/04 09:32:41;;;;;;;6.68;5.90;;;;;;;;;;5065494;28;20230;-76
2021/01/04 09:35:08;;;;;;;7.57;6.10;;;;;;;;;;5050106;28;20195;-76
2021/01/04 09:37:36;;;;;;;8.82;6.45;;;;;;;;;;5064334;28;20286;-75
2021/01/04 09:40:06;;;;;;;7.28;6.32;;;;;;;;;;5072010;28;20277;-76
2021/01/04 09:42:33;;;;;;;8.77;6.70;;;;;;;;;;5070032;28;20688;-77
2021/01/04 09:45:08;;;;;;;8.60;6.10;;;;;;;;;;5067260;28;20579;-77
2021/01/04 09:47:42;;;;;;;7.10;6.40;;;;;;;;;;5070498;28;20722;-77
2021/01/04 09:50:13;;;;;;;6.95;6.25;;;;;;;;;;5071665;28;20652;-76
2021/01/04 09:52:43;;;;;;;7.43;6.60;;;;;;;;;;5071525;28;20281;-77
2021/01/04 09:55:12;;;;;;;6.78;5.60;;;;;;;;;;5068402;28;20285;-77
2021/01/04 09:57:42;;;;;;;9.02;7.03;;;;;;;;;;5073832;28;20284;-76
2021/01/04 10:00:13;;;;;;;8.05;6.70;;;;;;;;;;5074352;28;20546;-77
2021/01/04 10:02:46;;;;;;;8.32;7.40;;;;;;;;;;5072776;28;20236;-76
2021/01/04 10:05:14;;;;;;;9.07;7.32;;;;;;;;;;5073180;28;20605;-77
2021/01/04 10:07:41;;;;;;;9.68;7.97;;;;;;;;;;5069198;28;20198;-77
2021/01/04 10:10:11;;;;;;;7.95;7.15;;;;;;;;;;5062151;28;20209;-76
2021/01/04 10:12:39;;;;;;;8.93;7.60;;;;;;;;;;5055790;28;20734;-76
2021/01/04 10:15:08;;;;;;;7.93;6.70;;;;;;;;;;5055477;28;20199;-76
2021/01/04 10:17:38;;;;;;;12.25;8.05;;;;;;;;;;5055730;28;20549;-75
2021/01/04 10:20:07;;;;;;;7.88;6.85;;;;;;;;;;5074751;28;20220;-75
2021/01/04 10:22:36;;;;;;;8.63;7.50;;;;;;;;;;5074771;28;20222;-77
2021/01/04 10:25:09;;;;;;;9.85;7.35;;;;;;;;;;5073722;28;20305;-76
2021/01/04 10:27:36;;;;;;;10.95;7.70;;;;;;;;;;5073707;28;20197;-76
2021/01/04 10:30:07;;;;;;;8.80;7.68;;;;;;;;;;5069998;28;20194;-77
2021/01/04 10:32:35;;;;;;;12.35;7.85;;;;;;;;;;5071244;28;20239;-76
2021/01/04 10:35:02;;;;;;;8.27;6.80;;;;;;;;;;5070288;28;20214;-75
2021/01/04 10:37:34;;;;;;;10.63;7.80;;;;;;;;;;5072089;28;20285;-75
2021/01/04 10:40:03;;;;;;;10.02;7.32;;;;;;;;;;5071233;28;20234;-77
2021/01/04 10:42:30;;;;;;;9.05;7.80;;;;;;;;;;5052896;28;20736;-76
2021/01/04 10:45:02;;;;;;;9.90;7.78;;;;;;;;;;5054225;28;20641;-75
2021/01/04 10:47:34;;;;;;;10.88;8.30;;;;;;;;;;5052883;28;20345;-76
2021/01/04 10:50:12;;;;;;;8.57;7.13;;;;;;;;;;5055011;28;20260;-76
2021/01/04 10:52:39;;;;;;;8.43;7.55;;;;;;;;;;5070013;28;20198;-76
2021/01/04 10:55:17;;;;;;;10.70;8.35;;;;;;;;;;5070602;28;20669;-75
2021/01/04 10:57:46;;;;;;;10.50;8.05;;;;;;;;;;5070037;28;20277;-75
2021/01/04 11:00:16;;;;;;;12.30;9.63;;;;;;;;;;5069301;28;20200;-75
2021/01/04 11:02:44;;;;;;;9.95;7.00;;;;;;;;;;5051593;28;20269;-74
2021/01/04 11:05:13;;;;;;;10.85;7.85;;;;;;;;;;5073729;28;20208;-76
2021/01/04 11:07:40;;;;;;;10.63;7.63;;;;;;;;;;5073484;28;20285;-76
2021/01/04 11:32:23;;;;;;;7.95;6.47;;;;;;;;;;5046939;28;20954;-75
2021/01/04 11:34:51;;;;;;;8.27;7.05;;;;;;;;;;5053598;28;20309;-76
2021/01/04 11:37:19;;;;;;;7.68;6.18;;;;;;;;;;5045722;28;20213;-75
2021/01/04 11:39:46;;;;;;;11.45;7.25;;;;;;;;;;5065788;28;20203;-77
2021/01/04 11:42:13;;;;;;;6.82;6.05;;;;;;;;;;5069641;28;20312;-76
2021/01/04 19:03:35;;;;;;;9.27;8.25;;;;;;;;;;4994163;23;20234;-75
2021/01/04 19:06:02;;;;;;;9.90;7.20;;;;;;;;;;4951630;28;20213;-76
2021/01/04 19:08:29;;;;;;;11.27;8.52;;;;;;;;;;4944054;28;20206;-76
2021/01/04 19:10:55;;;;;;;10.52;7.85;;;;;;;;;;4920657;29;20264;-76
2021/01/04 19:13:22;;;;;;;12.20;8.32;;;;;;;;;;4931231;29;20481;-75
2021/01/04 19:15:49;;;;;;;9.80;7.57;;;;;;;;;;4933040;29;20265;-77
2021/01/04 19:18:16;;;;;;;11.73;8.32;;;;;;;;;;4933126;29;20326;-76
2021/01/04 19:20:44;;;;;;;9.82;7.95;;;;;;;;;;4931471;29;20203;-79
2021/01/04 19:23:11;;;;;;;10.93;8.50;;;;;;;;;;4921048;29;20282;-76
2021/01/04 19:25:38;;;;;;;11.40;7.97;;;;;;;;;;4915745;29;20187;-75
2021/01/04 19:28:05;;;;;;;10.73;8.00;;;;;;;;;;4920768;29;20222;-75
2021/01/04 19:30:32;;;;;;;11.00;8.43;;;;;;;;;;4925584;29;20298;-75
2021/01/04 19:32:59;;;;;;;9.68;8.25;;;;;;;;;;4928618;29;20211;-75
2021/01/04 19:35:27;;;;;;;7.70;6.55;;;;;;;;;;4929060;29;20310;-77
2021/01/04 19:38:01;;;;;;;10.73;7.60;;;;;;;;;;4915016;29;20205;-76
2021/01/04 19:40:27;;;;;;;9.75;7.90;;;;;;;;;;4929122;29;20242;-75
2021/01/04 19:42:54;;;;;;;10.55;7.55;;;;;;;;;;4931225;29;20245;-76
2021/01/04 19:45:21;;;;;;;9.98;7.50;;;;;;;;;;4932086;29;20203;-75
2021/01/04 19:47:48;;;;;;;10.25;7.20;;;;;;;;;;4931717;29;20803;-75
2021/01/04 19:50:15;;;;;;;9.23;8.23;;;;;;;;;;4912327;29;20580;-76
2021/01/04 19:52:41;;;;;;;9.07;7.35;;;;;;;;;;4926281;29;20231;-76
2021/01/04 19:55:10;;;;;;;11.98;7.57;;;;;;;;;;4929693;29;20622;-76
2021/01/04 19:57:36;;;;;;;11.48;7.90;;;;;;;;;;4929678;29;20241;-75
2021/01/04 20:00:05;;;;;;;9.80;7.47;;;;;;;;;;4929624;29;20203;-75
2021/01/04 20:02:32;;;;;;;8.95;7.35;;;;;;;;;;4922005;29;20313;-75
2021/01/04 20:04:59;;;;;;;10.98;8.30;;;;;;;;;;4912107;29;20294;-81
2021/01/04 20:07:26;;;;;;;10.70;8.20;;;;;;;;;;4912040;29;20203;-76
2021/01/04 20:09:53;;;;;;;12.85;8.35;;;;;;;;;;4910817;29;20594;-76
2021/01/04 20:12:21;;;;;;;8.68;6.82;;;;;;;;;;4916314;29;20227;-77
2021/01/04 20:14:47;;;;;;;9.57;7.63;;;;;;;;;;4925342;29;20322;-75
2021/01/04 20:17:14;;;;;;;8.95;7.60;;;;;;;;;;4927899;29;20207;-76
2021/01/04 20:19:41;;;;;;;9.18;7.07;;;;;;;;;;4912364;29;20290;-77
2021/01/04 20:22:08;;;;;;;10.30;8.02;;;;;;;;;;4928122;29;20237;-75
2021/01/04 20:24:35;;;;;;;10.23;7.35;;;;;;;;;;4928106;29;20203;-75
2021/01/04 20:27:02;;;;;;;9.73;7.35;;;;;;;;;;4930825;29;20291;-75
2021/01/04 20:29:31;;;;;;;11.00;7.68;;;;;;;;;;4930764;29;20253;-77
2021/01/04 20:31:59;;;;;;;8.70;7.40;;;;;;;;;;4930630;29;20225;-77
2021/01/04 20:34:28;;;;;;;10.45;7.88;;;;;;;;;;4929640;29;20604;-77
2021/01/04 20:36:56;;;;;;;7.55;6.18;;;;;;;;;;4908398;29;20194;-76
2021/01/04 20:39:24;;;;;;;9.85;7.70;;;;;;;;;;4927001;29;20739;-76
2021/01/04 20:41:52;;;;;;;8.82;6.95;;;;;;;;;;4929074;29;20281;-76
2021/01/04 20:44:19;;;;;;;11.00;8.10;;;;;;;;;;4911891;29;20536;-75
2021/01/04 20:46:47;;;;;;;10.40;8.38;;;;;;;;;;4928282;29;21045;-74
2021/01/04 20:49:14;;;;;;;9.50;7.72;;;;;;;;;;4930305;29;20203;-75
2021/01/04 20:51:41;;;;;;;11.07;8.15;;;;;;;;;;4930322;29;20282;-75
2021/01/04 20:54:08;;;;;;;9.32;7.63;;;;;;;;;;4930856;29;20203;-75
2021/01/04 20:56:36;;;;;;;12.95;8.48;;;;;;;;;;4926968;29;20563;-75
2021/01/04 20:59:02;;;;;;;10.52;8.55;;;;;;;;;;4925221;29;20205;-75
2021/01/04 21:01:29;;;;;;;9.27;7.65;;;;;;;;;;4910443;29;20218;-77
2021/01/04 21:03:57;;;;;;;11.02;7.88;;;;;;;;;;4911682;29;20242;-74
2021/01/04 21:06:31;;;;;;;8.85;7.22;;;;;;;;;;4919883;29;20217;-78
2021/01/04 21:08:58;;;;;;;9.30;7.70;;;;;;;;;;4915693;29;20209;-76
2021/01/04 21:11:25;;;;;;;9.65;7.82;;;;;;;;;;4934173;29;20199;-77
2021/01/04 21:13:52;;;;;;;10.27;8.00;;;;;;;;;;4933694;29;20265;-77
2021/01/04 21:16:19;;;;;;;7.95;7.07;;;;;;;;;;4933900;29;20210;-78
2021/01/04 21:18:46;;;;;;;9.85;7.82;;;;;;;;;;4927901;29;20294;-76
2021/01/04 21:21:17;;;;;;;10.68;7.88;;;;;;;;;;4927692;29;20731;-75
2021/01/04 21:23:43;;;;;;;9.05;8.00;;;;;;;;;;4930314;29;20203;-76
2021/01/04 21:26:10;;;;;;;11.20;8.13;;;;;;;;;;4931812;29;20206;-75
2021/01/04 21:28:37;;;;;;;11.48;8.82;;;;;;;;;;4931630;29;20203;-74
2021/01/04 21:31:04;;;;;;;10.90;8.55;;;;;;;;;;4930839;29;20285;-75
2021/01/04 21:33:31;;;;;;;9.80;8.05;;;;;;;;;;4933609;29;20277;-74
2021/01/04 21:35:57;;;;;;;11.40;8.30;;;;;;;;;;4934214;29;20215;-74
2021/01/04 21:38:25;;;;;;;12.77;8.82;;;;;;;;;;4933798;29;20257;-75
2021/01/04 21:40:52;;;;;;;13.10;10.15;;;;;;;;;;4933168;29;20347;-74
2021/01/04 21:43:19;;;;;;;11.95;9.57;;;;;;;;;;4929171;29;20241;-74
2021/01/04 21:45:46;;;;;;;10.48;8.05;;;;;;;;;;4933319;29;20211;-76
2021/01/04 21:48:13;;;;;;;10.77;8.00;;;;;;;;;;4935217;29;20253;-75
2021/01/04 21:50:40;;;;;;;10.23;8.57;;;;;;;;;;4934955;29;20290;-76
2021/01/04 21:53:07;;;;;;;11.30;9.20;;;;;;;;;;4934437;29;20220;-75
2021/01/04 21:55:34;;;;;;;11.80;8.02;;;;;;;;;;4919771;29;20218;-75
2021/01/04 21:58:02;;;;;;;10.95;8.77;;;;;;;;;;4936743;29;20257;-75
2021/01/04 22:00:29;;;;;;;10.98;8.10;;;;;;;;;;4936749;29;20568;-76
2021/01/04 22:02:56;;;;;;;12.50;9.10;;;;;;;;;;4936348;29;20249;-75
2021/01/04 22:05:22;;;;;;;11.88;8.63;;;;;;;;;;4931188;29;20191;-76
2021/01/04 22:07:50;;;;;;;11.40;8.95;;;;;;;;;;4932635;29;20195;-75
2021/01/04 22:10:17;;;;;;;12.57;9.00;;;;;;;;;;4934573;29;20659;-76
2021/01/04 22:12:44;;;;;;;13.48;9.25;;;;;;;;;;4934336;29;20265;-75
2021/01/04 22:15:13;;;;;;;10.43;8.98;;;;;;;;;;4934274;29;20603;-75
2021/01/04 22:17:40;;;;;;;10.30;7.72;;;;;;;;;;4935959;29;20200;-75
2021/01/04 22:20:08;;;;;;;11.55;8.63;;;;;;;;;;4936728;29;20258;-75
2021/01/04 22:22:34;;;;;;;11.70;8.98;;;;;;;;;;4936369;29;20231;-75
2021/01/04 22:25:01;;;;;;;14.65;10.05;;;;;;;;;;4936626;29;20347;-75
2021/01/04 22:27:31;;;;;;;12.77;9.52;;;;;;;;;;4931021;29;20273;-75
2021/01/04 22:29:59;;;;;;;12.55;9.45;;;;;;;;;;4932070;29;20204;-75
2021/01/04 22:32:25;;;;;;;12.45;9.05;;;;;;;;;;4934446;29;20799;-75
2021/01/04 22:34:52;;;;;;;10.88;8.73;;;;;;;;;;4934130;29;20206;-75
2021/01/04 22:37:19;;;;;;;12.10;10.13;;;;;;;;;;4934051;29;20494;-74
2021/01/04 22:39:46;;;;;;;13.75;9.65;;;;;;;;;;4934943;29;20253;-76
2021/01/04 22:42:13;;;;;;;14.00;9.68;;;;;;;;;;4935887;29;20288;-75
2021/01/04 22:44:39;;;;;;;12.32;8.95;;;;;;;;;;4936128;29;20674;-75